sensor_id;sensor_type;location;lat;lon;timestamp;temperature;humidity
38938;DHT22;24727;51.974;20.868;2022-09-20T00:02:11;9.40;99.00
38938;DHT22;24727;51.974;20.868;2022-09-20T00:04:37;9.40;99.10
38938;DHT22;24727;51.974;20.868;2022-09-20T00:07:03;9.40;99.10
38938;DHT22;24727;51.974;20.868;2022-09-20T00:09:29;9.30;99.10
38938;DHT22;24727;51.974;20.868;2022-09-20T00:11:55;9.30;99.10
38938;DHT22;24727;51.974;20.868;2022-09-20T00:14:21;9.30;98.40
38938;DHT22;24727;51.974;20.868;2022-09-20T00:16:47;9.20;99.20
38938;DHT22;24727;51.974;20.868;2022-09-20T00:19:19;9.20;99.30
38938;DHT22;24727;51.974;20.868;2022-09-20T00:21:46;9.20;99.20
38938;DHT22;24727;51.974;20.868;2022-09-20T00:24:12;9.10;99.40
38938;DHT22;24727;51.974;20.868;2022-09-20T00:26:39;9.10;99.60
38938;DHT22;24727;51.974;20.868;2022-09-20T00:29:05;9.00;99.60
38938;DHT22;24727;51.974;20.868;2022-09-20T00:31:32;9.00;99.80
38938;DHT22;24727;51.974;20.868;2022-09-20T00:33:58;9.00;99.60
38938;DHT22;24727;51.974;20.868;2022-09-20T00:36:43;9.00;99.90
38938;DHT22;24727;51.974;20.868;2022-09-20T00:39:11;8.90;99.90
38938;DHT22;24727;51.974;20.868;2022-09-20T00:41:38;8.90;99.90
38938;DHT22;24727;51.974;20.868;2022-09-20T00:47:37;9.00;99.90
38938;DHT22;24727;51.974;20.868;2022-09-20T00:52:58;8.90;99.90
38938;DHT22;24727;51.974;20.868;2022-09-20T00:55:25;8.90;99.90
38938;DHT22;24727;51.974;20.868;2022-09-20T00:57:53;8.90;99.90
38938;DHT22;24727;51.974;20.868;2022-09-20T01:00:19;8.90;99.90
38938;DHT22;24727;51.974;20.868;2022-09-20T01:02:48;8.90;99.90
38938;DHT22;24727;51.974;20.868;2022-09-20T01:05:17;8.90;99.90
38938;DHT22;24727;51.974;20.868;2022-09-20T01:07:45;8.90;99.40
38938;DHT22;24727;51.974;20.868;2022-09-20T01:10:13;8.90;99.90
38938;DHT22;24727;51.974;20.868;2022-09-20T01:12:39;9.00;99.90
38938;DHT22;24727;51.974;20.868;2022-09-20T01:15:08;8.90;99.90
38938;DHT22;24727;51.974;20.868;2022-09-20T01:17:42;8.90;99.90
38938;DHT22;24727;51.974;20.868;2022-09-20T01:20:25;8.90;99.90
38938;DHT22;24727;51.974;20.868;2022-09-20T01:28:30;8.80;99.90
38938;DHT22;24727;51.974;20.868;2022-09-20T01:31:06;8.80;99.90
38938;DHT22;24727;51.974;20.868;2022-09-20T01:33:45;8.80;99.90
38938;DHT22;24727;51.974;20.868;2022-09-20T01:36:17;8.70;99.90
38938;DHT22;24727;51.974;20.868;2022-09-20T01:44:21;8.70;99.90
38938;DHT22;24727;51.974;20.868;2022-09-20T01:47:19;8.70;99.90
38938;DHT22;24727;51.974;20.868;2022-09-20T01:50:07;8.70;99.90
38938;DHT22;24727;51.974;20.868;2022-09-20T01:55:37;8.60;99.90
38938;DHT22;24727;51.974;20.868;2022-09-20T01:58:39;8.60;99.90
38938;DHT22;24727;51.974;20.868;2022-09-20T02:01:53;8.50;99.90
38938;DHT22;24727;51.974;20.868;2022-09-20T02:09:48;8.50;99.90
38938;DHT22;24727;51.974;20.868;2022-09-20T02:15:33;8.50;99.90
38938;DHT22;24727;51.974;20.868;2022-09-20T02:18:19;8.50;99.50
38938;DHT22;24727;51.974;20.868;2022-09-20T02:23:53;8.40;99.90
38938;DHT22;24727;51.974;20.868;2022-09-20T02:29:35;8.40;99.90
38938;DHT22;24727;51.974;20.868;2022-09-20T02:32:20;8.40;99.90
38938;DHT22;24727;51.974;20.868;2022-09-20T02:43:13;8.30;99.90
38938;DHT22;24727;51.974;20.868;2022-09-20T02:46:03;8.30;99.90
38938;DHT22;24727;51.974;20.868;2022-09-20T02:49:25;8.20;99.90
38938;DHT22;24727;51.974;20.868;2022-09-20T02:51:36;8.20;99.90
38938;DHT22;24727;51.974;20.868;2022-09-20T02:59:39;8.20;99.90
38938;DHT22;24727;51.974;20.868;2022-09-20T03:02:23;8.20;99.90
38938;DHT22;24727;51.974;20.868;2022-09-20T03:05:24;8.20;99.90
38938;DHT22;24727;51.974;20.868;2022-09-20T03:13:45;8.20;99.90
38938;DHT22;24727;51.974;20.868;2022-09-20T03:22:19;8.10;99.90
38938;DHT22;24727;51.974;20.868;2022-09-20T03:38:56;8.00;99.90
38938;DHT22;24727;51.974;20.868;2022-09-20T03:44:39;8.20;99.90
38938;DHT22;24727;51.974;20.868;2022-09-20T03:55:42;8.20;99.90
38938;DHT22;24727;51.974;20.868;2022-09-20T04:00:57;8.20;99.90
38938;DHT22;24727;51.974;20.868;2022-09-20T04:11:58;8.30;99.90
38938;DHT22;24727;51.974;20.868;2022-09-20T04:15:30;8.30;99.90
38938;DHT22;24727;51.974;20.868;2022-09-20T04:17:56;8.30;99.90
38938;DHT22;24727;51.974;20.868;2022-09-20T04:23:24;8.40;99.90
38938;DHT22;24727;51.974;20.868;2022-09-20T04:25:54;8.40;99.90
38938;DHT22;24727;51.974;20.868;2022-09-20T04:31:32;8.40;99.90
38938;DHT22;24727;51.974;20.868;2022-09-20T04:33:59;8.40;99.90
38938;DHT22;24727;51.974;20.868;2022-09-20T04:36:53;8.50;99.90
38938;DHT22;24727;51.974;20.868;2022-09-20T04:39:41;8.50;99.90
38938;DHT22;24727;51.974;20.868;2022-09-20T04:47:59;8.50;99.90
38938;DHT22;24727;51.974;20.868;2022-09-20T04:51:03;8.60;99.90
38938;DHT22;24727;51.974;20.868;2022-09-20T04:59:09;8.60;99.90
38938;DHT22;24727;51.974;20.868;2022-09-20T05:15:57;8.70;99.90
38938;DHT22;24727;51.974;20.868;2022-09-20T05:21:42;8.70;99.90
38938;DHT22;24727;51.974;20.868;2022-09-20T05:35:30;8.80;99.90
38938;DHT22;24727;51.974;20.868;2022-09-20T05:38:05;8.80;99.90
38938;DHT22;24727;51.974;20.868;2022-09-20T05:41:12;8.80;99.80
38938;DHT22;24727;51.974;20.868;2022-09-20T05:52:50;8.90;99.60
38938;DHT22;24727;51.974;20.868;2022-09-20T06:01:13;8.90;98.60
38938;DHT22;24727;51.974;20.868;2022-09-20T06:15:15;9.00;98.60
38938;DHT22;24727;51.974;20.868;2022-09-20T06:18:38;9.00;98.50
38938;DHT22;24727;51.974;20.868;2022-09-20T06:20:55;9.00;98.30
38938;DHT22;24727;51.974;20.868;2022-09-20T06:23:24;9.00;98.00
38938;DHT22;24727;51.974;20.868;2022-09-20T06:26:00;9.00;97.50
38938;DHT22;24727;51.974;20.868;2022-09-20T06:28:34;9.00;97.70
38938;DHT22;24727;51.974;20.868;2022-09-20T06:31:00;9.10;97.90
38938;DHT22;24727;51.974;20.868;2022-09-20T06:33:31;9.10;97.90
38938;DHT22;24727;51.974;20.868;2022-09-20T06:36:18;9.10;97.70
38938;DHT22;24727;51.974;20.868;2022-09-20T06:39:26;9.10;97.30
38938;DHT22;24727;51.974;20.868;2022-09-20T06:42:12;9.10;97.10
38938;DHT22;24727;51.974;20.868;2022-09-20T06:44:38;9.20;96.30
38938;DHT22;24727;51.974;20.868;2022-09-20T06:47:10;9.20;96.60
38938;DHT22;24727;51.974;20.868;2022-09-20T06:49:36;9.20;96.60
38938;DHT22;24727;51.974;20.868;2022-09-20T06:52:06;9.20;96.20
38938;DHT22;24727;51.974;20.868;2022-09-20T06:54:35;9.30;96.20
38938;DHT22;24727;51.974;20.868;2022-09-20T06:57:05;9.20;96.50
38938;DHT22;24727;51.974;20.868;2022-09-20T06:59:31;9.30;95.60
38938;DHT22;24727;51.974;20.868;2022-09-20T07:01:57;9.40;95.80
38938;DHT22;24727;51.974;20.868;2022-09-20T07:04:24;9.40;95.90
38938;DHT22;24727;51.974;20.868;2022-09-20T07:06:58;9.40;95.30
38938;DHT22;24727;51.974;20.868;2022-09-20T07:09:24;9.40;95.20
38938;DHT22;24727;51.974;20.868;2022-09-20T07:11:50;9.40;95.40
38938;DHT22;24727;51.974;20.868;2022-09-20T07:14:16;9.40;94.60
38938;DHT22;24727;51.974;20.868;2022-09-20T07:16:43;9.50;95.40
38938;DHT22;24727;51.974;20.868;2022-09-20T07:19:09;9.40;95.10
38938;DHT22;24727;51.974;20.868;2022-09-20T07:21:35;9.50;94.20
38938;DHT22;24727;51.974;20.868;2022-09-20T07:24:01;9.50;95.00
38938;DHT22;24727;51.974;20.868;2022-09-20T07:26:28;9.60;94.60
38938;DHT22;24727;51.974;20.868;2022-09-20T07:28:56;9.60;94.30
38938;DHT22;24727;51.974;20.868;2022-09-20T07:31:28;9.60;93.90
38938;DHT22;24727;51.974;20.868;2022-09-20T07:33:54;9.60;92.70
38938;DHT22;24727;51.974;20.868;2022-09-20T07:36:21;9.60;91.90
38938;DHT22;24727;51.974;20.868;2022-09-20T07:38:51;9.60;92.10
38938;DHT22;24727;51.974;20.868;2022-09-20T07:41:19;9.80;92.70
38938;DHT22;24727;51.974;20.868;2022-09-20T07:43:45;9.80;92.80
38938;DHT22;24727;51.974;20.868;2022-09-20T07:46:12;9.80;91.20
38938;DHT22;24727;51.974;20.868;2022-09-20T07:48:40;9.90;91.40
38938;DHT22;24727;51.974;20.868;2022-09-20T07:51:11;9.90;91.30
38938;DHT22;24727;51.974;20.868;2022-09-20T07:53:39;10.00;91.90
38938;DHT22;24727;51.974;20.868;2022-09-20T07:56:10;10.10;91.60
38938;DHT22;24727;51.974;20.868;2022-09-20T07:58:37;10.10;88.60
38938;DHT22;24727;51.974;20.868;2022-09-20T08:01:09;10.20;88.50
38938;DHT22;24727;51.974;20.868;2022-09-20T08:03:36;10.30;89.70
38938;DHT22;24727;51.974;20.868;2022-09-20T08:06:10;10.30;87.60
38938;DHT22;24727;51.974;20.868;2022-09-20T08:08:43;10.40;87.00
38938;DHT22;24727;51.974;20.868;2022-09-20T08:11:13;10.60;87.80
38938;DHT22;24727;51.974;20.868;2022-09-20T08:13:42;10.60;84.00
38938;DHT22;24727;51.974;20.868;2022-09-20T08:16:10;10.50;83.70
38938;DHT22;24727;51.974;20.868;2022-09-20T08:18:37;10.60;84.00
38938;DHT22;24727;51.974;20.868;2022-09-20T08:21:09;10.70;82.00
38938;DHT22;24727;51.974;20.868;2022-09-20T08:23:40;10.70;81.40
38938;DHT22;24727;51.974;20.868;2022-09-20T08:26:09;10.80;82.40
38938;DHT22;24727;51.974;20.868;2022-09-20T08:28:39;10.80;82.90
38938;DHT22;24727;51.974;20.868;2022-09-20T08:31:09;10.70;82.40
38938;DHT22;24727;51.974;20.868;2022-09-20T08:33:42;10.80;85.80
38938;DHT22;24727;51.974;20.868;2022-09-20T08:36:12;10.80;84.90
38938;DHT22;24727;51.974;20.868;2022-09-20T08:38:39;10.60;86.00
38938;DHT22;24727;51.974;20.868;2022-09-20T08:41:23;10.40;88.50
38938;DHT22;24727;51.974;20.868;2022-09-20T08:46:43;10.30;92.90
38938;DHT22;24727;51.974;20.868;2022-09-20T08:49:25;10.30;93.90
38938;DHT22;24727;51.974;20.868;2022-09-20T08:51:53;10.30;94.40
38938;DHT22;24727;51.974;20.868;2022-09-20T08:54:24;10.20;95.80
38938;DHT22;24727;51.974;20.868;2022-09-20T08:56:51;10.20;95.00
38938;DHT22;24727;51.974;20.868;2022-09-20T08:59:23;10.20;95.30
38938;DHT22;24727;51.974;20.868;2022-09-20T09:01:52;10.20;95.90
38938;DHT22;24727;51.974;20.868;2022-09-20T09:04:23;10.10;95.90
38938;DHT22;24727;51.974;20.868;2022-09-20T09:06:51;10.20;96.10
38938;DHT22;24727;51.974;20.868;2022-09-20T09:09:22;10.20;97.00
38938;DHT22;24727;51.974;20.868;2022-09-20T09:11:51;10.30;96.40
38938;DHT22;24727;51.974;20.868;2022-09-20T09:14:26;10.40;96.40
38938;DHT22;24727;51.974;20.868;2022-09-20T09:17:24;10.50;97.30
38938;DHT22;24727;51.974;20.868;2022-09-20T09:19:59;10.60;96.90
38938;DHT22;24727;51.974;20.868;2022-09-20T09:22:45;10.70;96.00
38938;DHT22;24727;51.974;20.868;2022-09-20T09:25:24;10.70;94.60
38938;DHT22;24727;51.974;20.868;2022-09-20T09:30:35;10.70;92.70
38938;DHT22;24727;51.974;20.868;2022-09-20T09:33:22;10.70;89.80
38938;DHT22;24727;51.974;20.868;2022-09-20T09:35:55;10.80;88.30
38938;DHT22;24727;51.974;20.868;2022-09-20T09:38:24;11.00;88.00
38938;DHT22;24727;51.974;20.868;2022-09-20T09:40:53;11.10;84.30
38938;DHT22;24727;51.974;20.868;2022-09-20T09:43:23;11.10;79.60
38938;DHT22;24727;51.974;20.868;2022-09-20T09:45:52;11.20;79.50
38938;DHT22;24727;51.974;20.868;2022-09-20T09:48:23;11.20;80.00
38938;DHT22;24727;51.974;20.868;2022-09-20T09:50:51;11.20;82.30
38938;DHT22;24727;51.974;20.868;2022-09-20T09:53:31;11.30;77.40
38938;DHT22;24727;51.974;20.868;2022-09-20T10:07:43;11.30;76.30
38938;DHT22;24727;51.974;20.868;2022-09-20T10:19:05;11.40;78.90
38938;DHT22;24727;51.974;20.868;2022-09-20T10:21:12;11.50;79.80
38938;DHT22;24727;51.974;20.868;2022-09-20T10:32:11;11.30;83.00
38938;DHT22;24727;51.974;20.868;2022-09-20T10:35:06;11.20;81.20
38938;DHT22;24727;51.974;20.868;2022-09-20T10:38:12;11.30;82.70
38938;DHT22;24727;51.974;20.868;2022-09-20T10:47:17;11.50;84.80
38938;DHT22;24727;51.974;20.868;2022-09-20T10:53:49;11.80;83.60
38938;DHT22;24727;51.974;20.868;2022-09-20T10:58:53;11.70;72.00
38938;DHT22;24727;51.974;20.868;2022-09-20T11:01:34;11.70;76.80
38938;DHT22;24727;51.974;20.868;2022-09-20T11:09:36;11.50;72.10
38938;DHT22;24727;51.974;20.868;2022-09-20T11:13:11;11.60;75.20
38938;DHT22;24727;51.974;20.868;2022-09-20T11:15:27;11.70;77.20
38938;DHT22;24727;51.974;20.868;2022-09-20T11:18:11;11.80;73.90
38938;DHT22;24727;51.974;20.868;2022-09-20T11:20:44;11.90;70.80
38938;DHT22;24727;51.974;20.868;2022-09-20T11:23:21;12.00;68.80
38938;DHT22;24727;51.974;20.868;2022-09-20T11:25:54;12.30;68.70
38938;DHT22;24727;51.974;20.868;2022-09-20T11:28:38;12.40;60.30
38938;DHT22;24727;51.974;20.868;2022-09-20T11:33:53;12.50;62.80
38938;DHT22;24727;51.974;20.868;2022-09-20T11:36:31;12.70;58.50
38938;DHT22;24727;51.974;20.868;2022-09-20T11:39:13;12.90;37.60
38938;DHT22;24727;51.974;20.868;2022-09-20T11:41:42;13.10;1.00
38938;DHT22;24727;51.974;20.868;2022-09-20T11:44:14;13.10;1.00
38938;DHT22;24727;51.974;20.868;2022-09-20T11:46:58;13.10;1.00
38938;DHT22;24727;51.974;20.868;2022-09-20T11:49:47;12.90;1.00
38938;DHT22;24727;51.974;20.868;2022-09-20T11:58:27;13.00;1.00
38938;DHT22;24727;51.974;20.868;2022-09-20T12:00:55;13.20;1.00
38938;DHT22;24727;51.974;20.868;2022-09-20T12:03:37;13.20;1.00
38938;DHT22;24727;51.974;20.868;2022-09-20T12:06:16;13.20;1.00
38938;DHT22;24727;51.974;20.868;2022-09-20T12:08:49;13.40;1.00
38938;DHT22;24727;51.974;20.868;2022-09-20T12:11:35;13.50;1.00
38938;DHT22;24727;51.974;20.868;2022-09-20T12:14:06;13.60;1.00
38938;DHT22;24727;51.974;20.868;2022-09-20T12:16:41;13.40;1.00
38938;DHT22;24727;51.974;20.868;2022-09-20T12:19:35;13.00;1.00
38938;DHT22;24727;51.974;20.868;2022-09-20T12:24:30;12.80;1.00
38938;DHT22;24727;51.974;20.868;2022-09-20T12:26:58;12.90;1.00
38938;DHT22;24727;51.974;20.868;2022-09-20T12:32:02;13.30;1.00
38938;DHT22;24727;51.974;20.868;2022-09-20T12:34:48;13.20;1.00
38938;DHT22;24727;51.974;20.868;2022-09-20T12:37:22;13.00;1.00
38938;DHT22;24727;51.974;20.868;2022-09-20T12:39:52;13.00;1.00
38938;DHT22;24727;51.974;20.868;2022-09-20T12:42:28;13.10;1.00
38938;DHT22;24727;51.974;20.868;2022-09-20T12:47:33;13.30;1.00
38938;DHT22;24727;51.974;20.868;2022-09-20T12:50:13;13.30;1.00
38938;DHT22;24727;51.974;20.868;2022-09-20T12:52:59;13.50;1.00
38938;DHT22;24727;51.974;20.868;2022-09-20T12:55:37;13.80;1.00
38938;DHT22;24727;51.974;20.868;2022-09-20T13:03:35;14.00;1.00
38938;DHT22;24727;51.974;20.868;2022-09-20T13:09:06;14.10;1.00
38938;DHT22;24727;51.974;20.868;2022-09-20T13:11:54;14.20;1.00
38938;DHT22;24727;51.974;20.868;2022-09-20T13:16:55;14.30;1.00
38938;DHT22;24727;51.974;20.868;2022-09-20T13:19:32;14.30;1.00
38938;DHT22;24727;51.974;20.868;2022-09-20T13:22:03;14.20;1.00
38938;DHT22;24727;51.974;20.868;2022-09-20T13:24:40;14.00;1.00
38938;DHT22;24727;51.974;20.868;2022-09-20T13:27:33;13.70;1.00
38938;DHT22;24727;51.974;20.868;2022-09-20T13:30:26;13.50;1.00
38938;DHT22;24727;51.974;20.868;2022-09-20T13:32:53;13.50;1.00
38938;DHT22;24727;51.974;20.868;2022-09-20T13:35:21;13.40;1.00
38938;DHT22;24727;51.974;20.868;2022-09-20T13:38:01;13.40;1.00
38938;DHT22;24727;51.974;20.868;2022-09-20T13:40:42;13.30;1.00
38938;DHT22;24727;51.974;20.868;2022-09-20T13:46:43;13.30;1.00
38938;DHT22;24727;51.974;20.868;2022-09-20T13:48:47;13.30;1.00
38938;DHT22;24727;51.974;20.868;2022-09-20T13:51:19;13.30;1.00
38938;DHT22;24727;51.974;20.868;2022-09-20T13:53:45;13.30;1.00
38938;DHT22;24727;51.974;20.868;2022-09-20T13:58:49;13.30;1.00
38938;DHT22;24727;51.974;20.868;2022-09-20T14:04:02;13.60;1.00
38938;DHT22;24727;51.974;20.868;2022-09-20T14:06:30;13.80;1.00
38938;DHT22;24727;51.974;20.868;2022-09-20T14:08:58;14.00;1.00
38938;DHT22;24727;51.974;20.868;2022-09-20T14:11:27;14.10;1.00
38938;DHT22;24727;51.974;20.868;2022-09-20T14:13:59;14.20;1.00
38938;DHT22;24727;51.974;20.868;2022-09-20T14:16:53;14.20;1.00
38938;DHT22;24727;51.974;20.868;2022-09-20T14:19:28;14.30;1.00
38938;DHT22;24727;51.974;20.868;2022-09-20T14:22:02;14.30;1.00
38938;DHT22;24727;51.974;20.868;2022-09-20T14:24:30;14.60;1.00
38938;DHT22;24727;51.974;20.868;2022-09-20T14:29:40;14.60;1.00
38938;DHT22;24727;51.974;20.868;2022-09-20T14:34:57;14.60;1.00
38938;DHT22;24727;51.974;20.868;2022-09-20T14:37:40;14.60;1.00
38938;DHT22;24727;51.974;20.868;2022-09-20T14:40:43;14.70;1.00
38938;DHT22;24727;51.974;20.868;2022-09-20T14:43:28;14.60;1.00
38938;DHT22;24727;51.974;20.868;2022-09-20T14:45:59;14.70;1.00
38938;DHT22;24727;51.974;20.868;2022-09-20T14:53:49;14.70;1.00
38938;DHT22;24727;51.974;20.868;2022-09-20T14:56:24;14.60;1.00
38938;DHT22;24727;51.974;20.868;2022-09-20T15:01:40;14.30;1.00
38938;DHT22;24727;51.974;20.868;2022-09-20T15:04:20;14.20;1.00
38938;DHT22;24727;51.974;20.868;2022-09-20T15:06:47;13.90;1.00
38938;DHT22;24727;51.974;20.868;2022-09-20T15:09:21;13.20;1.00
38938;DHT22;24727;51.974;20.868;2022-09-20T15:11:58;12.70;1.00
38938;DHT22;24727;51.974;20.868;2022-09-20T15:14:25;12.50;1.00
38938;DHT22;24727;51.974;20.868;2022-09-20T15:16:52;12.20;1.00
38938;DHT22;24727;51.974;20.868;2022-09-20T15:19:17;12.00;1.00
38938;DHT22;24727;51.974;20.868;2022-09-20T15:21:43;11.80;1.00
38938;DHT22;24727;51.974;20.868;2022-09-20T15:24:09;11.70;1.00
38938;DHT22;24727;51.974;20.868;2022-09-20T15:26:36;11.50;1.00
38938;DHT22;24727;51.974;20.868;2022-09-20T15:29:03;11.50;1.00
38938;DHT22;24727;51.974;20.868;2022-09-20T15:31:30;11.40;1.00
38938;DHT22;24727;51.974;20.868;2022-09-20T15:33:57;11.30;1.00
38938;DHT22;24727;51.974;20.868;2022-09-20T15:36:24;11.20;1.00
38938;DHT22;24727;51.974;20.868;2022-09-20T15:38:56;11.10;1.00
38938;DHT22;24727;51.974;20.868;2022-09-20T15:41:23;11.10;1.00
38938;DHT22;24727;51.974;20.868;2022-09-20T15:43:50;11.00;1.00
38938;DHT22;24727;51.974;20.868;2022-09-20T15:46:21;11.00;1.00
38938;DHT22;24727;51.974;20.868;2022-09-20T15:48:49;10.90;1.00
38938;DHT22;24727;51.974;20.868;2022-09-20T15:51:16;10.90;1.00
38938;DHT22;24727;51.974;20.868;2022-09-20T15:53:47;10.90;1.00
38938;DHT22;24727;51.974;20.868;2022-09-20T15:56:30;10.90;1.00
38938;DHT22;24727;51.974;20.868;2022-09-20T15:59:04;10.90;1.00
38938;DHT22;24727;51.974;20.868;2022-09-20T16:01:37;10.80;1.00
38938;DHT22;24727;51.974;20.868;2022-09-20T16:04:18;10.60;1.00
38938;DHT22;24727;51.974;20.868;2022-09-20T16:06:46;10.50;1.00
38938;DHT22;24727;51.974;20.868;2022-09-20T16:09:16;10.50;1.00
38938;DHT22;24727;51.974;20.868;2022-09-20T16:11:42;10.50;1.00
38938;DHT22;24727;51.974;20.868;2022-09-20T16:14:08;10.40;1.00
38938;DHT22;24727;51.974;20.868;2022-09-20T16:16:34;10.40;1.90
38938;DHT22;24727;51.974;20.868;2022-09-20T16:19:01;10.40;11.70
38938;DHT22;24727;51.974;20.868;2022-09-20T16:21:46;10.30;12.10
38938;DHT22;24727;51.974;20.868;2022-09-20T16:24:15;10.30;14.00
38938;DHT22;24727;51.974;20.868;2022-09-20T16:26:42;10.30;11.60
38938;DHT22;24727;51.974;20.868;2022-09-20T16:29:09;10.30;6.40
38938;DHT22;24727;51.974;20.868;2022-09-20T16:31:39;10.40;8.40
38938;DHT22;24727;51.974;20.868;2022-09-20T16:34:13;10.70;14.30
38938;DHT22;24727;51.974;20.868;2022-09-20T16:36:41;10.90;1.30
38938;DHT22;24727;51.974;20.868;2022-09-20T16:39:10;11.20;1.00
38938;DHT22;24727;51.974;20.868;2022-09-20T16:41:39;11.30;1.00
38938;DHT22;24727;51.974;20.868;2022-09-20T16:44:05;11.40;1.00
38938;DHT22;24727;51.974;20.868;2022-09-20T16:46:34;11.20;1.00
38938;DHT22;24727;51.974;20.868;2022-09-20T16:49:04;11.50;1.00
38938;DHT22;24727;51.974;20.868;2022-09-20T16:51:32;11.40;1.00
38938;DHT22;24727;51.974;20.868;2022-09-20T16:54:03;11.50;1.00
38938;DHT22;24727;51.974;20.868;2022-09-20T16:56:34;11.70;1.00
38938;DHT22;24727;51.974;20.868;2022-09-20T16:59:02;11.80;1.00
38938;DHT22;24727;51.974;20.868;2022-09-20T17:01:29;11.90;1.00
38938;DHT22;24727;51.974;20.868;2022-09-20T17:03:56;11.20;1.00
38938;DHT22;24727;51.974;20.868;2022-09-20T17:06:23;11.10;1.00
38938;DHT22;24727;51.974;20.868;2022-09-20T17:08:54;11.10;1.00
38938;DHT22;24727;51.974;20.868;2022-09-20T17:11:25;11.10;1.00
38938;DHT22;24727;51.974;20.868;2022-09-20T17:13:52;10.80;1.00
38938;DHT22;24727;51.974;20.868;2022-09-20T17:16:24;10.70;16.00
38938;DHT22;24727;51.974;20.868;2022-09-20T17:18:58;10.60;20.50
38938;DHT22;24727;51.974;20.868;2022-09-20T17:21:28;10.50;39.80
38938;DHT22;24727;51.974;20.868;2022-09-20T17:23:56;10.20;68.50
38938;DHT22;24727;51.974;20.868;2022-09-20T17:26:26;10.10;82.70
38938;DHT22;24727;51.974;20.868;2022-09-20T17:28:54;10.00;90.10
38938;DHT22;24727;51.974;20.868;2022-09-20T17:31:23;10.00;92.00
38938;DHT22;24727;51.974;20.868;2022-09-20T17:33:53;10.00;93.60
38938;DHT22;24727;51.974;20.868;2022-09-20T17:36:20;9.90;93.90
38938;DHT22;24727;51.974;20.868;2022-09-20T17:38:53;9.90;95.00
38938;DHT22;24727;51.974;20.868;2022-09-20T17:41:21;10.00;95.80
38938;DHT22;24727;51.974;20.868;2022-09-20T17:43:51;10.00;95.90
38938;DHT22;24727;51.974;20.868;2022-09-20T17:46:20;10.00;96.20
38938;DHT22;24727;51.974;20.868;2022-09-20T17:48:54;10.10;96.40
38938;DHT22;24727;51.974;20.868;2022-09-20T17:51:22;10.20;96.40
38938;DHT22;24727;51.974;20.868;2022-09-20T17:53:55;10.30;95.90
38938;DHT22;24727;51.974;20.868;2022-09-20T17:56:22;10.30;94.30
38938;DHT22;24727;51.974;20.868;2022-09-20T17:58:54;10.30;92.80
38938;DHT22;24727;51.974;20.868;2022-09-20T18:01:24;10.50;89.60
38938;DHT22;24727;51.974;20.868;2022-09-20T18:03:52;10.50;86.10
38938;DHT22;24727;51.974;20.868;2022-09-20T18:06:25;10.60;83.80
38938;DHT22;24727;51.974;20.868;2022-09-20T18:08:56;10.60;83.00
38938;DHT22;24727;51.974;20.868;2022-09-20T18:11:46;10.60;82.60
38938;DHT22;24727;51.974;20.868;2022-09-20T18:14:15;10.50;85.00
38938;DHT22;24727;51.974;20.868;2022-09-20T18:16:42;10.30;86.20
38938;DHT22;24727;51.974;20.868;2022-09-20T18:19:09;10.20;89.60
38938;DHT22;24727;51.974;20.868;2022-09-20T18:21:37;10.10;90.00
38938;DHT22;24727;51.974;20.868;2022-09-20T18:24:08;10.10;91.10
38938;DHT22;24727;51.974;20.868;2022-09-20T18:26:35;10.10;92.30
38938;DHT22;24727;51.974;20.868;2022-09-20T18:29:17;10.10;92.80
38938;DHT22;24727;51.974;20.868;2022-09-20T18:31:48;10.10;93.20
38938;DHT22;24727;51.974;20.868;2022-09-20T18:34:20;10.00;93.60
38938;DHT22;24727;51.974;20.868;2022-09-20T18:36:53;9.90;94.30
38938;DHT22;24727;51.974;20.868;2022-09-20T18:39:20;9.90;95.50
38938;DHT22;24727;51.974;20.868;2022-09-20T18:41:48;9.80;96.20
38938;DHT22;24727;51.974;20.868;2022-09-20T18:44:15;9.80;97.10
38938;DHT22;24727;51.974;20.868;2022-09-20T18:46:44;9.70;97.80
38938;DHT22;24727;51.974;20.868;2022-09-20T18:49:11;9.70;98.40
38938;DHT22;24727;51.974;20.868;2022-09-20T18:51:43;9.70;98.80
38938;DHT22;24727;51.974;20.868;2022-09-20T18:54:12;9.70;99.20
38938;DHT22;24727;51.974;20.868;2022-09-20T18:56:45;9.60;99.40
38938;DHT22;24727;51.974;20.868;2022-09-20T18:59:18;9.60;99.80
38938;DHT22;24727;51.974;20.868;2022-09-20T19:05:01;9.60;99.90
38938;DHT22;24727;51.974;20.868;2022-09-20T19:21:12;9.60;99.90
38938;DHT22;24727;51.974;20.868;2022-09-20T19:24:04;9.60;99.90
38938;DHT22;24727;51.974;20.868;2022-09-20T19:26:36;9.60;99.90
38938;DHT22;24727;51.974;20.868;2022-09-20T19:29:27;9.60;99.90
38938;DHT22;24727;51.974;20.868;2022-09-20T19:31:56;9.60;99.90
38938;DHT22;24727;51.974;20.868;2022-09-20T19:34:28;9.60;99.90
38938;DHT22;24727;51.974;20.868;2022-09-20T19:46:00;9.60;99.90
38938;DHT22;24727;51.974;20.868;2022-09-20T19:49:49;9.50;99.90
38938;DHT22;24727;51.974;20.868;2022-09-20T19:51:43;9.50;99.90
38938;DHT22;24727;51.974;20.868;2022-09-20T19:54:11;9.50;99.90
38938;DHT22;24727;51.974;20.868;2022-09-20T19:56:57;9.50;99.90
38938;DHT22;24727;51.974;20.868;2022-09-20T19:59:26;9.40;99.90
38938;DHT22;24727;51.974;20.868;2022-09-20T20:01:55;9.50;99.90
38938;DHT22;24727;51.974;20.868;2022-09-20T20:04:22;9.40;99.90
38938;DHT22;24727;51.974;20.868;2022-09-20T20:15:02;9.40;99.90
38938;DHT22;24727;51.974;20.868;2022-09-20T20:28:37;9.50;99.90
38938;DHT22;24727;51.974;20.868;2022-09-20T20:31:11;9.50;99.90
38938;DHT22;24727;51.974;20.868;2022-09-20T20:33:39;9.40;99.90
38938;DHT22;24727;51.974;20.868;2022-09-20T20:36:06;9.50;99.90
38938;DHT22;24727;51.974;20.868;2022-09-20T20:38:38;9.40;99.90
38938;DHT22;24727;51.974;20.868;2022-09-20T20:41:13;9.40;99.90
38938;DHT22;24727;51.974;20.868;2022-09-20T20:43:41;9.40;99.90
38938;DHT22;24727;51.974;20.868;2022-09-20T20:46:11;9.30;99.90
38938;DHT22;24727;51.974;20.868;2022-09-20T20:48:39;9.30;99.90
38938;DHT22;24727;51.974;20.868;2022-09-20T20:51:17;9.40;99.90
38938;DHT22;24727;51.974;20.868;2022-09-20T20:53:48;9.30;99.90
38938;DHT22;24727;51.974;20.868;2022-09-20T20:56:18;9.30;99.90
38938;DHT22;24727;51.974;20.868;2022-09-20T20:58:45;9.20;99.90
38938;DHT22;24727;51.974;20.868;2022-09-20T21:01:15;9.20;99.90
38938;DHT22;24727;51.974;20.868;2022-09-20T21:03:44;9.20;99.90
38938;DHT22;24727;51.974;20.868;2022-09-20T21:06:11;9.20;99.90
38938;DHT22;24727;51.974;20.868;2022-09-20T21:08:39;9.20;99.90
38938;DHT22;24727;51.974;20.868;2022-09-20T21:14:04;9.10;99.90
38938;DHT22;24727;51.974;20.868;2022-09-20T21:16:34;9.10;99.90
38938;DHT22;24727;51.974;20.868;2022-09-20T21:19:02;9.10;99.90
38938;DHT22;24727;51.974;20.868;2022-09-20T21:21:31;9.00;99.90
38938;DHT22;24727;51.974;20.868;2022-09-20T21:24:05;9.00;99.90
38938;DHT22;24727;51.974;20.868;2022-09-20T21:26:33;9.00;99.90